PWSweather.com
Personal Weather Stations
Station Observations

ChardChardGB

Lat: 50.877408, Lon: -2.94964741

Elevation: 341

Station Type: WS3083

http://www.merriott-astro.co.uk/weather/index.htm

High Low Average
Temperature 50.0°F10.0°C 32.0°F0.0°C 40.4°F4.7°C
Dew Point 42.4°F5.8°C 27.7°F-2.4°C 35.3°F1.8°C
Winds 12.3 mph 19.8 kmh Calm Calm 4.0 mph ESE6.4 kmh ESE
Wind Gusts 18.3 mph29.5 kmh -- 5.0 mph8.0 kmh
Humidity 95% 61% 83%
Pressure 30.77 in1042.0 mb 30.34 in1027.4 mb -
Precipitation 0.02 in0.5 mm - -
Hour Temp Dew Point Humidity Winds Wind Gusts Pressure Precip Precip Rate Daily Precip Total
12:00 AM 34.3°F1.3°C 31.7°F-0.2°C 90% Calm Calm -- 30.34 in1027.4 mb 0.00 in0.0 mm 0.00 in0.0 mm 0.00 in0.0 mm
12:10 AM 34.7°F1.5°C 32.4°F0.2°C 91% Calm Calm 0.7 mph1.1 kmh 30.34 in1027.4 mb 0.00 in0.0 mm 0.00 in0.0 mm 0.00 in0.0 mm
12:20 AM 34.0°F1.1°C 31.4°F-0.3°C 90% Calm Calm -- 30.35 in1027.8 mb 0.00 in0.0 mm 0.00 in0.0 mm 0.00 in0.0 mm
12:30 AM 34.2°F1.2°C 31.8°F-0.1°C 91% Calm Calm 0.7 mph1.1 kmh 30.34 in1027.4 mb 0.00 in0.0 mm 0.00 in0.0 mm 0.00 in0.0 mm
12:40 AM 34.3°F1.3°C 32.0°F0.0°C 91% 0.2 mph SW0.3 kmh SW 0.7 mph1.1 kmh 30.35 in1027.8 mb 0.00 in0.0 mm 0.00 in0.0 mm 0.00 in0.0 mm
12:50 AM 34.2°F1.2°C 31.8°F-0.1°C 91% Calm Calm -- 30.35 in1027.8 mb 0.00 in0.0 mm 0.00 in0.0 mm 0.00 in0.0 mm
01:00 AM 34.3°F1.3°C 32.0°F0.0°C 91% 0.1 mph SE0.2 kmh SE 0.7 mph1.1 kmh 30.36 in1028.1 mb 0.00 in0.0 mm 0.00 in0.0 mm 0.00 in0.0 mm
01:10 AM 34.3°F1.3°C 32.0°F0.0°C 91% 0.1 mph SE0.2 kmh SE 0.7 mph1.1 kmh 30.36 in1028.1 mb 0.00 in0.0 mm 0.00 in0.0 mm 0.00 in0.0 mm
01:20 AM 34.2°F1.2°C 31.8°F-0.1°C 91% 0.2 mph SSW0.3 kmh SSW 0.7 mph1.1 kmh 30.36 in1028.1 mb 0.00 in0.0 mm 0.00 in0.0 mm 0.00 in0.0 mm
01:30 AM 34.0°F1.1°C 31.6°F-0.2°C 91% 0.2 mph N0.3 kmh N 0.7 mph1.1 kmh 30.37 in1028.4 mb 0.00 in0.0 mm 0.00 in0.0 mm 0.00 in0.0 mm
01:40 AM 33.8°F1.0°C 31.5°F-0.3°C 91% Calm Calm -- 30.37 in1028.4 mb 0.00 in0.0 mm 0.00 in0.0 mm 0.00 in0.0 mm
01:50 AM 33.4°F0.8°C 30.8°F-0.7°C 90% Calm Calm -- 30.38 in1028.8 mb 0.00 in0.0 mm 0.00 in0.0 mm 0.00 in0.0 mm
02:00 AM 33.4°F0.8°C 30.8°F-0.7°C 90% Calm Calm -- 30.38 in1028.8 mb 0.00 in0.0 mm 0.00 in0.0 mm 0.00 in0.0 mm
02:10 AM 33.3°F0.7°C 30.7°F-0.7°C 90% 0.3 mph NE0.5 kmh NE 0.7 mph1.1 kmh 30.38 in1028.8 mb 0.00 in0.0 mm 0.00 in0.0 mm 0.00 in0.0 mm
02:20 AM 33.4°F0.8°C 30.8°F-0.7°C 90% Calm Calm -- 30.38 in1028.8 mb 0.00 in0.0 mm 0.00 in0.0 mm 0.00 in0.0 mm
02:30 AM 32.9°F0.5°C 30.3°F-0.9°C 90% Calm Calm -- 30.39 in1029.1 mb 0.00 in0.0 mm 0.00 in0.0 mm 0.00 in0.0 mm
02:40 AM 33.3°F0.7°C 30.7°F-0.7°C 90% Calm Calm -- 30.39 in1029.1 mb 0.00 in0.0 mm 0.00 in0.0 mm 0.00 in0.0 mm
02:50 AM 33.3°F0.7°C 30.9°F-0.6°C 91% Calm Calm -- 30.40 in1029.5 mb 0.00 in0.0 mm 0.00 in0.0 mm 0.00 in0.0 mm
03:00 AM 33.4°F0.8°C 31.1°F-0.5°C 91% Calm Calm -- 30.40 in1029.5 mb 0.00 in0.0 mm 0.00 in0.0 mm 0.00 in0.0 mm
03:10 AM 34.0°F1.1°C 31.6°F-0.2°C 91% 0.2 mph NE0.3 kmh NE 0.7 mph1.1 kmh 30.40 in1029.5 mb 0.00 in0.0 mm 0.00 in0.0 mm 0.00 in0.0 mm
03:20 AM 34.3°F1.3°C 32.0°F0.0°C 91% 0.6 mph NE1.0 kmh NE 1.6 mph2.6 kmh 30.41 in1029.8 mb 0.00 in0.0 mm 0.00 in0.0 mm 0.00 in0.0 mm
03:30 AM 34.3°F1.3°C 32.0°F0.0°C 91% 0.2 mph NE0.3 kmh NE 0.7 mph1.1 kmh 30.41 in1029.8 mb 0.00 in0.0 mm 0.00 in0.0 mm 0.00 in0.0 mm
03:40 AM 34.5°F1.4°C 32.2°F0.1°C 91% Calm Calm -- 30.41 in1029.8 mb 0.00 in0.0 mm 0.00 in0.0 mm 0.00 in0.0 mm
03:50 AM 34.3°F1.3°C 32.0°F0.0°C 91% Calm Calm -- 30.42 in1030.1 mb 0.00 in0.0 mm 0.00 in0.0 mm 0.00 in0.0 mm
04:00 AM 34.3°F1.3°C 32.0°F0.0°C 91% Calm Calm -- 30.42 in1030.1 mb 0.00 in0.0 mm 0.00 in0.0 mm 0.00 in0.0 mm
04:10 AM 34.0°F1.1°C 31.6°F-0.2°C 91% Calm Calm -- 30.43 in1030.5 mb 0.00 in0.0 mm 0.00 in0.0 mm 0.00 in0.0 mm
04:20 AM 34.7°F1.5°C 32.4°F0.2°C 91% Calm Calm -- 30.43 in1030.5 mb 0.00 in0.0 mm 0.00 in0.0 mm 0.00 in0.0 mm
04:30 AM 35.1°F1.7°C 32.7°F0.4°C 91% Calm Calm -- 30.43 in1030.5 mb 0.00 in0.0 mm 0.00 in0.0 mm 0.00 in0.0 mm
04:40 AM 35.4°F1.9°C 33.1°F0.6°C 91% Calm Calm 0.7 mph1.1 kmh 30.44 in1030.8 mb 0.00 in0.0 mm 0.00 in0.0 mm 0.00 in0.0 mm
04:50 AM 36.3°F2.4°C 34.2°F1.2°C 92% 0.9 mph ENE1.4 kmh ENE 2.2 mph3.5 kmh 30.45 in1031.2 mb 0.00 in0.0 mm 0.00 in0.0 mm 0.00 in0.0 mm
05:00 AM 36.9°F2.7°C 34.8°F1.6°C 92% 0.9 mph NE1.4 kmh NE 2.2 mph3.5 kmh 30.46 in1031.5 mb 0.00 in0.0 mm 0.00 in0.0 mm 0.00 in0.0 mm
05:10 AM 37.0°F2.8°C 34.9°F1.6°C 92% 0.9 mph NE1.4 kmh NE 2.2 mph3.5 kmh 30.46 in1031.5 mb 0.00 in0.0 mm 0.00 in0.0 mm 0.00 in0.0 mm
05:20 AM 37.8°F3.2°C 35.7°F2.1°C 92% 0.8 mph ENE1.3 kmh ENE 1.6 mph2.6 kmh 30.46 in1031.5 mb 0.00 in0.0 mm 0.00 in0.0 mm 0.00 in0.0 mm
05:30 AM 38.7°F3.7°C 36.8°F2.7°C 93% 1.4 mph NE2.3 kmh NE 2.2 mph3.5 kmh 30.47 in1031.8 mb 0.00 in0.0 mm 0.00 in0.0 mm 0.00 in0.0 mm
05:40 AM 39.4°F4.1°C 37.5°F3.1°C 93% 2.2 mph NE3.5 kmh NE 3.1 mph5.0 kmh 30.47 in1031.8 mb 0.00 in0.0 mm 0.00 in0.0 mm 0.00 in0.0 mm
05:50 AM 39.7°F4.3°C 37.9°F3.3°C 93% 2.1 mph ENE3.4 kmh ENE 3.1 mph5.0 kmh 30.47 in1031.8 mb 0.00 in0.0 mm 0.00 in0.0 mm 0.00 in0.0 mm
06:00 AM 39.9°F4.4°C 38.1°F3.4°C 93% 2.9 mph NE4.7 kmh NE 3.8 mph6.1 kmh 30.48 in1032.2 mb 0.00 in0.0 mm 0.00 in0.0 mm 0.00 in0.0 mm
06:10 AM 40.3°F4.6°C 38.4°F3.6°C 93% 4.1 mph N6.6 kmh N 5.4 mph8.7 kmh 30.48 in1032.2 mb 0.00 in0.0 mm 0.00 in0.0 mm 0.00 in0.0 mm
06:20 AM 40.8°F4.9°C 39.2°F4.0°C 94% 3.8 mph NNE6.1 kmh NNE 5.4 mph8.7 kmh 30.49 in1032.5 mb 0.00 in0.0 mm 0.00 in0.0 mm 0.00 in0.0 mm
06:30 AM 41.2°F5.1°C 39.6°F4.2°C 94% 3.8 mph NE6.1 kmh NE 5.4 mph8.7 kmh 30.49 in1032.5 mb 0.00 in0.0 mm 0.00 in0.0 mm 0.00 in0.0 mm
06:40 AM 41.4°F5.2°C 39.8°F4.3°C 94% 3.4 mph NE5.5 kmh NE 6.0 mph9.7 kmh 30.50 in1032.8 mb 0.00 in0.0 mm 0.00 in0.0 mm 0.00 in0.0 mm
06:50 AM 41.5°F5.3°C 39.9°F4.4°C 94% 4.1 mph ENE6.6 kmh ENE 5.4 mph8.7 kmh 30.51 in1033.2 mb 0.00 in0.0 mm 0.00 in0.0 mm 0.00 in0.0 mm
07:00 AM 41.7°F5.4°C 40.1°F4.5°C 94% 4.2 mph NE6.8 kmh NE 5.4 mph8.7 kmh 30.51 in1033.2 mb 0.00 in0.0 mm 0.00 in0.0 mm 0.00 in0.0 mm
07:10 AM 41.7°F5.4°C 40.1°F4.5°C 94% 4.4 mph NE7.1 kmh NE 6.0 mph9.7 kmh 30.52 in1033.5 mb 0.01 in0.3 mm 0.06 in1.5 mm 0.01 in0.3 mm
07:20 AM 41.9°F5.5°C 40.3°F4.6°C 94% 3.9 mph NE6.3 kmh NE 6.0 mph9.7 kmh 30.52 in1033.5 mb 0.01 in0.3 mm 0.00 in0.0 mm 0.01 in0.3 mm
07:30 AM 42.4°F5.8°C 41.1°F5.1°C 95% 4.5 mph ENE7.2 kmh ENE 6.0 mph9.7 kmh 30.52 in1033.5 mb 0.01 in0.3 mm 0.00 in0.0 mm 0.01 in0.3 mm
07:40 AM 42.8°F6.0°C 41.5°F5.3°C 95% 6.0 mph NNE9.7 kmh NNE 9.2 mph14.8 kmh 30.54 in1034.2 mb 0.01 in0.3 mm 0.00 in0.0 mm 0.01 in0.3 mm
07:50 AM 42.8°F6.0°C 41.5°F5.3°C 95% 6.2 mph NE10.0 kmh NE 9.8 mph15.8 kmh 30.54 in1034.2 mb 0.01 in0.3 mm 0.00 in0.0 mm 0.01 in0.3 mm
08:00 AM 43.0°F6.1°C 41.6°F5.3°C 95% 5.3 mph NNE8.5 kmh NNE 7.6 mph12.2 kmh 30.54 in1034.2 mb 0.01 in0.3 mm 0.00 in0.0 mm 0.01 in0.3 mm
08:10 AM 43.2°F6.2°C 41.8°F5.4°C 95% 6.1 mph NNW9.8 kmh NNW 8.3 mph13.4 kmh 30.56 in1034.9 mb 0.00 in0.0 mm 0.00 in0.0 mm 0.01 in0.3 mm
08:20 AM 43.2°F6.2°C 41.8°F5.4°C 95% 7.4 mph WNW11.9 kmh WNW 11.4 mph18.3 kmh 30.56 in1034.9 mb 0.00 in0.0 mm 0.00 in0.0 mm 0.01 in0.3 mm
08:30 AM 43.2°F6.2°C 41.8°F5.4°C 95% 6.4 mph NNE10.3 kmh NNE 10.7 mph17.2 kmh 30.57 in1035.2 mb 0.00 in0.0 mm 0.00 in0.0 mm 0.01 in0.3 mm
08:40 AM 43.3°F6.3°C 42.0°F5.6°C 95% 6.5 mph N10.5 kmh N 10.7 mph17.2 kmh 30.57 in1035.2 mb 0.00 in0.0 mm 0.00 in0.0 mm 0.01 in0.3 mm
08:50 AM 43.5°F6.4°C 42.2°F5.7°C 95% 6.1 mph NNW9.8 kmh NNW 9.8 mph15.8 kmh 30.57 in1035.2 mb 0.00 in0.0 mm 0.00 in0.0 mm 0.01 in0.3 mm
09:00 AM 43.5°F6.4°C 42.2°F5.7°C 95% 6.7 mph N10.8 kmh N 9.8 mph15.8 kmh 30.58 in1035.6 mb 0.00 in0.0 mm 0.00 in0.0 mm 0.01 in0.3 mm
09:10 AM 43.5°F6.4°C 42.2°F5.7°C 95% 6.6 mph N10.6 kmh N 13.0 mph20.9 kmh 30.59 in1035.9 mb 0.00 in0.0 mm 0.00 in0.0 mm 0.01 in0.3 mm
09:20 AM 43.7°F6.5°C 42.4°F5.8°C 95% 8.0 mph NNE12.9 kmh NNE 13.0 mph20.9 kmh 30.60 in1036.2 mb 0.00 in0.0 mm 0.00 in0.0 mm 0.01 in0.3 mm
09:30 AM 43.7°F6.5°C 42.1°F5.6°C 94% 7.9 mph NNE12.7 kmh NNE 11.4 mph18.3 kmh 30.60 in1036.2 mb 0.00 in0.0 mm 0.00 in0.0 mm 0.01 in0.3 mm
09:40 AM 43.9°F6.6°C 42.0°F5.6°C 93% 8.3 mph NNW13.4 kmh NNW 15.2 mph24.5 kmh 30.60 in1036.2 mb 0.00 in0.0 mm 0.00 in0.0 mm 0.01 in0.3 mm
09:50 AM 44.4°F6.9°C 42.0°F5.6°C 91% 8.4 mph N13.5 kmh N 11.4 mph18.3 kmh 30.61 in1036.6 mb 0.00 in0.0 mm 0.00 in0.0 mm 0.01 in0.3 mm
10:00 AM 44.6°F7.0°C 41.9°F5.5°C 90% 9.3 mph NE15.0 kmh NE 15.9 mph25.6 kmh 30.60 in1036.2 mb 0.00 in0.0 mm 0.00 in0.0 mm 0.01 in0.3 mm
10:10 AM 45.0°F7.2°C 41.3°F5.2°C 87% 10.3 mph N16.6 kmh N 13.6 mph21.9 kmh 30.61 in1036.6 mb 0.00 in0.0 mm 0.00 in0.0 mm 0.01 in0.3 mm
10:20 AM 45.5°F7.5°C 39.7°F4.3°C 80% 9.3 mph N15.0 kmh N 12.1 mph19.5 kmh 30.61 in1036.6 mb 0.00 in0.0 mm 0.00 in0.0 mm 0.01 in0.3 mm
10:30 AM 45.9°F7.7°C 39.4°F4.1°C 78% 8.5 mph NNE13.7 kmh NNE 13.0 mph20.9 kmh 30.61 in1036.6 mb 0.00 in0.0 mm 0.00 in0.0 mm 0.01 in0.3 mm
10:40 AM 46.6°F8.1°C 39.1°F3.9°C 75% 9.1 mph N14.6 kmh N 11.4 mph18.3 kmh 30.62 in1036.9 mb 0.00 in0.0 mm 0.00 in0.0 mm 0.01 in0.3 mm
10:50 AM 46.8°F8.2°C 38.6°F3.7°C 73% 10.6 mph NE17.1 kmh NE 14.5 mph23.3 kmh 30.63 in1037.3 mb 0.00 in0.0 mm 0.00 in0.0 mm 0.01 in0.3 mm
11:00 AM 46.9°F8.3°C 38.0°F3.3°C 71% 9.3 mph NNE15.0 kmh NNE 13.0 mph20.9 kmh 30.63 in1037.3 mb 0.00 in0.0 mm 0.00 in0.0 mm 0.01 in0.3 mm
11:10 AM 47.3°F8.5°C 38.4°F3.6°C 71% 10.6 mph N17.1 kmh N 13.6 mph21.9 kmh 30.64 in1037.6 mb 0.01 in0.3 mm 0.06 in1.5 mm 0.02 in0.5 mm
11:20 AM 46.6°F8.1°C 37.3°F2.9°C 70% 10.7 mph NE17.2 kmh NE 14.5 mph23.3 kmh 30.64 in1037.6 mb 0.01 in0.3 mm 0.00 in0.0 mm 0.02 in0.5 mm
11:30 AM 46.8°F8.2°C 37.5°F3.1°C 70% 10.5 mph NNE16.9 kmh NNE 13.0 mph20.9 kmh 30.64 in1037.6 mb 0.01 in0.3 mm 0.00 in0.0 mm 0.02 in0.5 mm
11:40 AM 46.9°F8.3°C 37.7°F3.2°C 70% 10.9 mph NNE17.5 kmh NNE 13.0 mph20.9 kmh 30.64 in1037.6 mb 0.01 in0.3 mm 0.00 in0.0 mm 0.02 in0.5 mm
11:50 AM 47.8°F8.8°C 38.2°F3.4°C 69% 12.3 mph NE19.8 kmh NE 15.2 mph24.5 kmh 30.63 in1037.3 mb 0.01 in0.3 mm 0.00 in0.0 mm 0.02 in0.5 mm
12:00 PM 48.6°F9.2°C 38.5°F3.6°C 68% 10.1 mph N16.3 kmh N 14.5 mph23.3 kmh 30.63 in1037.3 mb 0.01 in0.3 mm 0.00 in0.0 mm 0.02 in0.5 mm
12:10 PM 48.6°F9.2°C 38.1°F3.4°C 67% 12.3 mph NE19.8 kmh NE 18.3 mph29.5 kmh 30.64 in1037.6 mb 0.00 in0.0 mm 0.00 in0.0 mm 0.02 in0.5 mm
12:20 PM 47.5°F8.6°C 37.1°F2.8°C 67% 11.8 mph N19.0 kmh N 16.8 mph27.0 kmh 30.64 in1037.6 mb 0.00 in0.0 mm 0.00 in0.0 mm 0.02 in0.5 mm
12:30 PM 48.7°F9.3°C 38.3°F3.5°C 67% 9.5 mph N15.3 kmh N 12.1 mph19.5 kmh 30.64 in1037.6 mb 0.00 in0.0 mm 0.00 in0.0 mm 0.02 in0.5 mm
12:40 PM 48.9°F9.4°C 37.3°F2.9°C 64% 9.3 mph N15.0 kmh N 13.0 mph20.9 kmh 30.65 in1037.9 mb 0.00 in0.0 mm 0.00 in0.0 mm 0.02 in0.5 mm
12:50 PM 49.3°F9.6°C 37.6°F3.1°C 64% 9.7 mph NE15.6 kmh NE 13.0 mph20.9 kmh 30.65 in1037.9 mb 0.00 in0.0 mm 0.00 in0.0 mm 0.02 in0.5 mm
01:00 PM 49.6°F9.8°C 38.0°F3.3°C 64% 8.6 mph N13.8 kmh N 13.0 mph20.9 kmh 30.66 in1038.3 mb 0.00 in0.0 mm 0.00 in0.0 mm 0.02 in0.5 mm
01:10 PM 48.7°F9.3°C 37.1°F2.8°C 64% 9.6 mph N15.4 kmh N 10.7 mph17.2 kmh 30.66 in1038.3 mb 0.00 in0.0 mm 0.00 in0.0 mm 0.02 in0.5 mm
01:20 PM 49.3°F9.6°C 37.6°F3.1°C 64% 8.0 mph NNE12.9 kmh NNE 11.4 mph18.3 kmh 30.65 in1037.9 mb 0.00 in0.0 mm 0.00 in0.0 mm 0.02 in0.5 mm
01:30 PM 49.1°F9.5°C 37.1°F2.8°C 63% 9.8 mph N15.8 kmh N 14.5 mph23.3 kmh 30.66 in1038.3 mb 0.00 in0.0 mm 0.00 in0.0 mm 0.02 in0.5 mm
01:40 PM 49.8°F9.9°C 37.3°F2.9°C 62% 10.3 mph N16.6 kmh N 14.5 mph23.3 kmh 30.66 in1038.3 mb 0.00 in0.0 mm 0.00 in0.0 mm 0.02 in0.5 mm
01:50 PM 50.0°F10.0°C 37.1°F2.8°C 61% 8.0 mph N12.9 kmh N 10.7 mph17.2 kmh 30.66 in1038.3 mb 0.00 in0.0 mm 0.00 in0.0 mm 0.02 in0.5 mm
02:00 PM 49.3°F9.6°C 36.8°F2.7°C 62% 8.8 mph N14.2 kmh N 11.4 mph18.3 kmh 30.67 in1038.6 mb 0.00 in0.0 mm 0.00 in0.0 mm 0.02 in0.5 mm
02:10 PM 49.1°F9.5°C 36.7°F2.6°C 62% 9.4 mph NE15.1 kmh NE 13.0 mph20.9 kmh 30.67 in1038.6 mb 0.00 in0.0 mm 0.00 in0.0 mm 0.02 in0.5 mm
02:20 PM 49.1°F9.5°C 36.7°F2.6°C 62% 9.3 mph NNE15.0 kmh NNE 12.1 mph19.5 kmh 30.68 in1038.9 mb 0.00 in0.0 mm 0.00 in0.0 mm 0.02 in0.5 mm
02:30 PM 49.1°F9.5°C 37.1°F2.8°C 63% 7.2 mph N11.6 kmh N 9.8 mph15.8 kmh 30.67 in1038.6 mb 0.00 in0.0 mm 0.00 in0.0 mm 0.02 in0.5 mm
02:40 PM 48.7°F9.3°C 36.3°F2.4°C 62% 7.2 mph N11.6 kmh N 9.2 mph14.8 kmh 30.68 in1038.9 mb 0.00 in0.0 mm 0.00 in0.0 mm 0.02 in0.5 mm
02:50 PM 48.0°F8.9°C 36.4°F2.4°C 64% 7.2 mph N11.6 kmh N 9.8 mph15.8 kmh 30.68 in1038.9 mb 0.00 in0.0 mm 0.00 in0.0 mm 0.02 in0.5 mm
03:00 PM 47.7°F8.7°C 36.5°F2.5°C 65% 6.2 mph NE10.0 kmh NE 7.6 mph12.2 kmh 30.69 in1039.3 mb 0.00 in0.0 mm 0.00 in0.0 mm 0.02 in0.5 mm
03:10 PM 47.5°F8.6°C 36.3°F2.4°C 65% 4.9 mph NE7.9 kmh NE 7.6 mph12.2 kmh 30.69 in1039.3 mb 0.00 in0.0 mm 0.00 in0.0 mm 0.02 in0.5 mm
03:20 PM 47.3°F8.5°C 36.5°F2.5°C 66% 5.5 mph WNW8.9 kmh WNW 9.8 mph15.8 kmh 30.69 in1039.3 mb 0.00 in0.0 mm 0.00 in0.0 mm 0.02 in0.5 mm
03:30 PM 46.9°F8.3°C 36.2°F2.3°C 66% 5.4 mph N8.7 kmh N 10.7 mph17.2 kmh 30.70 in1039.6 mb 0.00 in0.0 mm 0.00 in0.0 mm 0.02 in0.5 mm
03:40 PM 46.8°F8.2°C 36.4°F2.4°C 67% 5.3 mph NNW8.5 kmh NNW 10.7 mph17.2 kmh 30.70 in1039.6 mb 0.00 in0.0 mm 0.00 in0.0 mm 0.02 in0.5 mm
03:50 PM 46.4°F8.0°C 36.4°F2.4°C 68% 3.8 mph N6.1 kmh N 6.9 mph11.1 kmh 30.70 in1039.6 mb 0.00 in0.0 mm 0.00 in0.0 mm 0.02 in0.5 mm
04:00 PM 46.2°F7.9°C 36.6°F2.6°C 69% 5.1 mph NE8.2 kmh NE 6.9 mph11.1 kmh 30.71 in1040.0 mb 0.00 in0.0 mm 0.00 in0.0 mm 0.02 in0.5 mm
04:10 PM 45.7°F7.6°C 36.1°F2.3°C 69% 3.4 mph N5.5 kmh N 5.4 mph8.7 kmh 30.71 in1040.0 mb 0.00 in0.0 mm 0.00 in0.0 mm 0.02 in0.5 mm
04:20 PM 45.3°F7.4°C 37.2°F2.9°C 73% 2.6 mph N4.2 kmh N 3.8 mph6.1 kmh 30.72 in1040.3 mb 0.00 in0.0 mm 0.00 in0.0 mm 0.02 in0.5 mm
04:30 PM 44.6°F7.0°C 36.8°F2.7°C 74% 1.6 mph N2.6 kmh N 2.2 mph3.5 kmh 30.72 in1040.3 mb 0.00 in0.0 mm 0.00 in0.0 mm 0.02 in0.5 mm
04:40 PM 44.2°F6.8°C 37.2°F2.9°C 76% 1.7 mph NW2.7 kmh NW 4.5 mph7.2 kmh 30.72 in1040.3 mb 0.00 in0.0 mm 0.00 in0.0 mm 0.02 in0.5 mm
04:50 PM 43.9°F6.6°C 37.1°F2.8°C 77% 2.1 mph W3.4 kmh W 3.1 mph5.0 kmh 30.72 in1040.3 mb 0.00 in0.0 mm 0.00 in0.0 mm 0.02 in0.5 mm
05:00 PM 43.2°F6.2°C 36.8°F2.7°C 78% 1.1 mph NNW1.8 kmh NNW 2.2 mph3.5 kmh 30.73 in1040.6 mb 0.00 in0.0 mm 0.00 in0.0 mm 0.02 in0.5 mm
05:10 PM 42.4°F5.8°C 36.7°F2.6°C 80% 0.1 mph S0.2 kmh S 0.7 mph1.1 kmh 30.73 in1040.6 mb 0.00 in0.0 mm 0.00 in0.0 mm 0.02 in0.5 mm
05:20 PM 42.1°F5.6°C 36.7°F2.6°C 81% 0.9 mph SE1.4 kmh SE 1.6 mph2.6 kmh 30.73 in1040.6 mb 0.00 in0.0 mm 0.00 in0.0 mm 0.02 in0.5 mm
05:30 PM 41.2°F5.1°C 35.8°F2.1°C 81% 0.2 mph S0.3 kmh S 0.7 mph1.1 kmh 30.74 in1041.0 mb 0.00 in0.0 mm 0.00 in0.0 mm 0.02 in0.5 mm
05:40 PM 40.6°F4.8°C 35.6°F2.0°C 82% 0.7 mph SW1.1 kmh SW 1.6 mph2.6 kmh 30.73 in1040.6 mb 0.00 in0.0 mm 0.00 in0.0 mm 0.02 in0.5 mm
05:50 PM 40.3°F4.6°C 35.5°F1.9°C 83% 0.3 mph S0.5 kmh S 1.6 mph2.6 kmh 30.74 in1041.0 mb 0.00 in0.0 mm 0.00 in0.0 mm 0.02 in0.5 mm
06:00 PM 39.7°F4.3°C 35.3°F1.8°C 84% 0.1 mph SE0.2 kmh SE 0.7 mph1.1 kmh 30.75 in1041.3 mb 0.00 in0.0 mm 0.00 in0.0 mm 0.02 in0.5 mm
06:10 PM 39.6°F4.2°C 35.1°F1.7°C 84% 0.2 mph SSE0.3 kmh SSE 0.7 mph1.1 kmh 30.75 in1041.3 mb 0.00 in0.0 mm 0.00 in0.0 mm 0.02 in0.5 mm
06:20 PM 39.0°F3.9°C 34.9°F1.6°C 85% 0.2 mph E0.3 kmh E 2.2 mph3.5 kmh 30.75 in1041.3 mb 0.00 in0.0 mm 0.00 in0.0 mm 0.02 in0.5 mm
06:30 PM 38.7°F3.7°C 34.5°F1.4°C 85% 0.2 mph NE0.3 kmh NE 2.2 mph3.5 kmh 30.74 in1041.0 mb 0.00 in0.0 mm 0.00 in0.0 mm 0.02 in0.5 mm
06:40 PM 39.7°F4.3°C 35.9°F2.2°C 86% 3.5 mph NE5.6 kmh NE 5.4 mph8.7 kmh 30.74 in1041.0 mb 0.00 in0.0 mm 0.00 in0.0 mm 0.02 in0.5 mm
06:50 PM 39.4°F4.1°C 35.0°F1.7°C 84% 0.2 mph NE0.3 kmh NE 2.2 mph3.5 kmh 30.75 in1041.3 mb 0.00 in0.0 mm 0.00 in0.0 mm 0.02 in0.5 mm
07:00 PM 38.8°F3.8°C 34.1°F1.2°C 83% 0.3 mph S0.5 kmh S 0.7 mph1.1 kmh 30.74 in1041.0 mb 0.00 in0.0 mm 0.00 in0.0 mm 0.02 in0.5 mm
07:10 PM 38.7°F3.7°C 34.3°F1.3°C 84% 0.3 mph SE0.5 kmh SE 1.6 mph2.6 kmh 30.74 in1041.0 mb 0.00 in0.0 mm 0.00 in0.0 mm 0.02 in0.5 mm
07:20 PM 38.3°F3.5°C 33.6°F0.9°C 83% 0.2 mph SW0.3 kmh SW 1.6 mph2.6 kmh 30.75 in1041.3 mb 0.00 in0.0 mm 0.00 in0.0 mm 0.02 in0.5 mm
07:30 PM 38.3°F3.5°C 33.6°F0.9°C 83% 0.7 mph SSW1.1 kmh SSW 1.6 mph2.6 kmh 30.76 in1041.7 mb 0.00 in0.0 mm 0.00 in0.0 mm 0.02 in0.5 mm
07:40 PM 37.9°F3.3°C 33.2°F0.7°C 83% 0.1 mph S0.2 kmh S 0.7 mph1.1 kmh 30.76 in1041.7 mb 0.00 in0.0 mm 0.00 in0.0 mm 0.02 in0.5 mm
07:50 PM 37.6°F3.1°C 32.9°F0.5°C 83% 0.3 mph SE0.5 kmh SE 0.7 mph1.1 kmh 30.76 in1041.7 mb 0.00 in0.0 mm 0.00 in0.0 mm 0.02 in0.5 mm
08:00 PM 37.0°F2.8°C 32.4°F0.2°C 83% 0.6 mph NNW1.0 kmh NNW 1.6 mph2.6 kmh 30.76 in1041.7 mb 0.00 in0.0 mm 0.00 in0.0 mm 0.02 in0.5 mm
08:10 PM 36.5°F2.5°C 31.8°F-0.1°C 83% 0.8 mph W1.3 kmh W 1.6 mph2.6 kmh 30.76 in1041.7 mb 0.00 in0.0 mm 0.00 in0.0 mm 0.02 in0.5 mm
08:20 PM 36.7°F2.6°C 32.3°F0.2°C 84% 1.4 mph SSW2.3 kmh SSW 2.2 mph3.5 kmh 30.76 in1041.7 mb 0.00 in0.0 mm 0.00 in0.0 mm 0.02 in0.5 mm
08:30 PM 36.7°F2.6°C 32.3°F0.2°C 84% 1.1 mph S1.8 kmh S 1.6 mph2.6 kmh 30.77 in1042.0 mb 0.00 in0.0 mm 0.00 in0.0 mm 0.02 in0.5 mm
08:40 PM 36.5°F2.5°C 31.8°F-0.1°C 83% 0.2 mph SSE0.3 kmh SSE 1.6 mph2.6 kmh 30.76 in1041.7 mb 0.00 in0.0 mm 0.00 in0.0 mm 0.02 in0.5 mm
08:50 PM 35.6°F2.0°C 30.7°F-0.7°C 82% Calm Calm -- 30.77 in1042.0 mb 0.00 in0.0 mm 0.00 in0.0 mm 0.02 in0.5 mm
09:00 PM 35.6°F2.0°C 31.0°F-0.6°C 83% 1.0 mph S1.6 kmh S 2.2 mph3.5 kmh 30.77 in1042.0 mb 0.00 in0.0 mm 0.00 in0.0 mm 0.02 in0.5 mm
09:10 PM 35.8°F2.1°C 31.1°F-0.5°C 83% 0.2 mph SSE0.3 kmh SSE 0.7 mph1.1 kmh 30.77 in1042.0 mb 0.00 in0.0 mm 0.00 in0.0 mm 0.02 in0.5 mm
09:20 PM 35.2°F1.8°C 30.3°F-0.9°C 82% Calm Calm 0.7 mph1.1 kmh 30.77 in1042.0 mb 0.00 in0.0 mm 0.00 in0.0 mm 0.02 in0.5 mm
09:30 PM 35.1°F1.7°C 30.4°F-0.9°C 83% 1.0 mph S1.6 kmh S 1.6 mph2.6 kmh 30.77 in1042.0 mb 0.00 in0.0 mm 0.00 in0.0 mm 0.02 in0.5 mm
09:40 PM 34.7°F1.5°C 30.1°F-1.1°C 83% 0.7 mph S1.1 kmh S 1.6 mph2.6 kmh 30.77 in1042.0 mb 0.00 in0.0 mm 0.00 in0.0 mm 0.02 in0.5 mm
09:50 PM 34.2°F1.2°C 29.3°F-1.5°C 82% 0.4 mph NE0.6 kmh NE 0.7 mph1.1 kmh 30.77 in1042.0 mb 0.00 in0.0 mm 0.00 in0.0 mm 0.02 in0.5 mm
10:00 PM 33.6°F0.9°C 29.0°F-1.7°C 83% Calm Calm -- 30.77 in1042.0 mb 0.00 in0.0 mm 0.00 in0.0 mm 0.02 in0.5 mm
10:10 PM 34.3°F1.3°C 30.0°F-1.1°C 84% 3.9 mph S6.3 kmh S 5.4 mph8.7 kmh 30.77 in1042.0 mb 0.00 in0.0 mm 0.00 in0.0 mm 0.02 in0.5 mm
10:20 PM 34.5°F1.4°C 30.2°F-1.0°C 84% 2.6 mph S4.2 kmh S 3.8 mph6.1 kmh 30.76 in1041.7 mb 0.00 in0.0 mm 0.00 in0.0 mm 0.02 in0.5 mm
10:30 PM 34.7°F1.5°C 30.1°F-1.1°C 83% 1.9 mph SE3.1 kmh SE 3.8 mph6.1 kmh 30.75 in1041.3 mb 0.00 in0.0 mm 0.00 in0.0 mm 0.02 in0.5 mm
10:40 PM 34.2°F1.2°C 29.3°F-1.5°C 82% 0.9 mph SSW1.4 kmh SSW 2.2 mph3.5 kmh 30.77 in1042.0 mb 0.00 in0.0 mm 0.00 in0.0 mm 0.02 in0.5 mm
10:50 PM 34.3°F1.3°C 29.7°F-1.3°C 83% 3.0 mph S4.8 kmh S 4.5 mph7.2 kmh 30.76 in1041.7 mb 0.00 in0.0 mm 0.00 in0.0 mm 0.02 in0.5 mm
11:00 PM 33.8°F1.0°C 29.2°F-1.6°C 83% 0.4 mph SW0.6 kmh SW 0.7 mph1.1 kmh 30.76 in1041.7 mb 0.00 in0.0 mm 0.00 in0.0 mm 0.02 in0.5 mm
11:10 PM 33.4°F0.8°C 28.8°F-1.8°C 83% 0.2 mph S0.3 kmh S 0.7 mph1.1 kmh 30.77 in1042.0 mb 0.00 in0.0 mm 0.00 in0.0 mm 0.02 in0.5 mm
11:20 PM 32.9°F0.5°C 28.3°F-2.1°C 83% 0.1 mph N0.2 kmh N 0.7 mph1.1 kmh 30.77 in1042.0 mb 0.00 in0.0 mm 0.00 in0.0 mm 0.02 in0.5 mm
11:30 PM 32.7°F0.4°C 28.1°F-2.2°C 83% 0.8 mph SSE1.3 kmh SSE 1.6 mph2.6 kmh 30.77 in1042.0 mb 0.00 in0.0 mm 0.00 in0.0 mm 0.02 in0.5 mm
11:40 PM 32.4°F0.2°C 27.8°F-2.3°C 83% 0.1 mph SSE0.2 kmh SSE 1.6 mph2.6 kmh 30.77 in1042.0 mb 0.00 in0.0 mm 0.00 in0.0 mm 0.02 in0.5 mm
11:50 PM 32.0°F0.0°C 27.7°F-2.4°C 84% 0.4 mph S0.6 kmh S 1.6 mph2.6 kmh 30.77 in1042.0 mb 0.00 in0.0 mm 0.00 in0.0 mm 0.02 in0.5 mm